Time;durP1;ratioP1;P1;durP2;ratioP2;P2;SDS_P1;SDS_P2;PMS_P1;PMS_P2;Temp;Humidity;BMP_temperature;BMP_pressure;BME280_temperature;BME280_humidity;BME280_pressure;Samples;Min_cycle;Max_cycle;Signal;HPM_P1;HPM_P2
2022/04/08 00:01:41;;;;;;;3.30;0.77;;;8.50;48.40;;;7.15;47.62;96148.59;5061271;28;20448;-77
2022/04/08 00:04:09;;;;;;;3.97;1.03;;;8.50;48.20;;;7.15;47.33;96161.19;5032495;28;21353;-79
2022/04/08 00:06:36;;;;;;;1.20;0.73;;;8.50;48.00;;;7.16;47.04;96157.44;5037550;28;21249;-79
2022/04/08 00:09:04;;;;;;;6.80;1.03;;;8.50;48.00;;;7.17;47.76;96167.97;5033424;28;20480;-76
2022/04/08 00:11:31;;;;;;;2.90;0.90;;;8.50;48.20;;;7.15;47.77;96171.94;5035136;28;20462;-78
2022/04/08 00:13:58;;;;;;;2.60;0.80;;;8.50;48.00;;;7.05;47.61;96157.28;5036295;28;20533;-79
2022/04/08 00:16:25;;;;;;;1.80;0.93;;;8.50;48.00;;;7.10;47.78;96175.34;5048409;28;20468;-78
2022/04/08 00:18:53;;;;;;;2.63;0.70;;;8.40;48.00;;;6.95;47.77;96143.63;5037364;28;20464;-81
2022/04/08 00:21:20;;;;;;;2.97;0.90;;;8.40;47.90;;;7.00;47.49;96175.16;5042378;28;20462;-81
2022/04/08 00:23:47;;;;;;;2.50;0.93;;;8.40;47.90;;;7.06;47.59;96191.13;5043671;28;20547;-82
2022/04/08 00:26:14;;;;;;;3.43;0.93;;;8.40;48.10;;;6.98;48.13;96180.75;5056797;28;20460;-80
2022/04/08 00:28:41;;;;;;;3.80;1.13;;;8.30;48.10;;;6.94;48.17;96187.66;5045865;28;20484;-81
2022/04/08 00:31:08;;;;;;;3.10;1.23;;;8.30;48.20;;;6.97;47.86;96176.44;5033269;28;20594;-80
2022/04/08 00:33:35;;;;;;;2.10;0.90;;;8.30;48.30;;;6.94;47.89;96198.38;5043318;28;20796;-79
2022/04/08 00:36:04;;;;;;;3.63;1.23;;;8.30;48.00;;;6.47;48.64;96130.31;5050285;28;20518;-79
2022/04/08 00:38:32;;;;;;;4.10;1.20;;;8.20;48.10;;;6.86;48.26;96196.06;5040940;28;20464;-80
2022/04/08 00:41:00;;;;;;;3.00;1.00;;;8.20;48.30;;;6.84;48.17;96179.38;5032196;28;20463;-79
2022/04/08 00:43:35;;;;;;;2.33;1.13;;;8.20;48.00;;;6.79;48.29;96191.66;5037831;28;20462;-78
2022/04/08 00:46:03;;;;;;;4.50;1.00;;;8.20;48.20;;;6.80;48.65;96187.06;5034600;28;20555;-78
2022/04/08 00:48:30;;;;;;;3.43;1.20;;;8.20;48.40;;;6.78;48.37;96200.75;5037256;28;20580;-79
2022/04/08 00:50:59;;;;;;;3.53;1.00;;;8.10;48.40;;;6.74;48.86;96202.25;5042394;28;20490;-80
2022/04/08 00:53:28;;;;;;;0.80;0.60;;;8.10;48.40;;;6.79;48.81;96204.22;5036690;28;20532;-77
2022/04/08 00:55:55;;;;;;;2.47;0.90;;;8.10;48.30;;;6.75;48.67;96211.97;5039576;28;20471;-78
2022/04/08 00:58:24;;;;;;;2.50;1.00;;;8.10;48.20;;;6.72;48.88;96215.09;5034192;28;20480;-81
2022/04/08 01:00:51;;;;;;;2.40;0.70;;;8.10;48.40;;;6.71;48.50;96194.69;5029850;28;20457;-81
2022/04/08 01:03:18;;;;;;;2.00;0.80;;;8.10;48.40;;;6.67;48.68;96209.63;5034218;28;20507;-77
2022/04/08 01:05:45;;;;;;;2.70;0.73;;;8.00;48.30;;;6.72;48.71;96211.63;5037695;28;21345;-78
2022/04/08 01:08:17;;;;;;;3.97;1.17;;;8.00;48.10;;;6.71;48.73;96221.53;5029501;28;20476;-78
2022/04/08 01:10:45;;;;;;;2.70;1.03;;;8.10;48.20;;;6.64;49.16;96220.84;5028927;28;20538;-77
2022/04/08 01:13:12;;;;;;;1.30;0.60;;;8.00;48.50;;;6.57;48.69;96214.75;5033019;28;20539;-77
2022/04/08 01:15:39;;;;;;;5.20;1.13;;;8.00;48.50;;;6.58;49.23;96221.75;5034237;28;20518;-81
2022/04/08 01:18:07;;;;;;;4.13;1.10;;;8.00;48.80;;;6.54;49.93;96245.56;5044150;28;20455;-78
2022/04/08 01:20:34;;;;;;;3.03;1.17;;;7.90;48.90;;;6.52;50.44;96242.28;5040720;28;20554;-80
2022/04/08 01:23:01;;;;;;;3.00;0.90;;;7.90;49.20;;;6.47;50.88;96253.75;5033393;28;20508;-78
2022/04/08 01:25:30;;;;;;;2.83;1.40;;;7.80;49.40;;;6.43;51.07;96249.88;5035002;28;20548;-79
2022/04/08 01:27:57;;;;;;;2.80;0.90;;;7.80;49.80;;;6.41;51.64;96256.53;5037924;28;20516;-78
2022/04/08 01:30:25;;;;;;;3.67;1.20;;;7.80;50.00;;;6.45;51.39;96266.56;5036279;28;20899;-76
2022/04/08 01:32:52;;;;;;;3.97;0.93;;;7.80;50.10;;;6.44;51.51;96264.91;5047275;28;20461;-77
2022/04/08 01:35:19;;;;;;;2.53;1.13;;;7.80;50.20;;;6.44;51.81;96262.22;5050882;28;20462;-78
2022/04/08 01:37:46;;;;;;;1.50;0.80;;;7.80;50.30;;;6.36;52.44;96267.94;5056358;28;20494;-79
2022/04/08 01:40:14;;;;;;;4.37;1.33;;;7.70;50.50;;;6.33;51.89;96268.41;5042693;28;20464;-76
2022/04/08 01:42:42;;;;;;;4.20;0.93;;;7.70;50.40;;;6.36;51.46;96267.94;5039418;28;20481;-80
2022/04/08 01:45:11;;;;;;;5.20;1.50;;;7.80;50.30;;;6.42;51.79;96274.25;5032039;28;20873;-78
2022/04/08 01:47:38;;;;;;;4.57;1.20;;;7.80;50.20;;;6.41;52.55;96276.09;5032656;28;20461;-77
2022/04/08 01:50:07;;;;;;;3.70;1.00;;;7.80;50.70;;;6.37;52.66;96269.59;5033350;28;22385;-78
2022/04/08 01:52:34;;;;;;;6.23;1.10;;;7.70;51.10;;;6.29;53.26;96273.41;5045845;28;21093;-80
2022/04/08 01:55:05;;;;;;;2.83;1.60;;;7.70;51.20;;;6.19;54.01;96274.00;5037887;28;20479;-76
2022/04/08 01:57:33;;;;;;;3.40;1.30;;;7.60;51.60;;;6.15;54.96;96282.72;5040727;28;20473;-79
2022/04/08 02:00:02;;;;;;;3.63;1.23;;;7.50;52.10;;;6.14;55.37;96287.28;5039418;28;20489;-78
2022/04/08 02:02:29;;;;;;;1.30;0.90;;;7.50;52.70;;;6.01;55.79;96282.91;5037849;28;21044;-78
2022/04/08 02:04:56;;;;;;;2.23;1.00;;;7.40;53.20;;;6.03;56.02;96280.00;5034390;28;20561;-78
2022/04/08 02:07:23;;;;;;;2.87;1.13;;;7.40;53.40;;;6.01;56.30;96303.53;5035474;28;20590;-79
2022/04/08 02:09:51;;;;;;;4.03;0.90;;;7.40;53.80;;;6.04;56.41;96300.41;5033866;28;21105;-78
2022/04/08 02:12:18;;;;;;;2.87;1.00;;;7.40;53.90;;;6.00;56.97;96296.53;5044496;28;20461;-78
2022/04/08 02:14:46;;;;;;;3.13;1.00;;;7.40;54.00;;;5.99;55.95;96302.91;5046165;28;20463;-82
2022/04/08 02:17:14;;;;;;;2.10;0.77;;;7.40;53.80;;;6.00;56.75;96318.78;5044703;28;20627;-76
2022/04/08 02:19:41;;;;;;;7.40;1.30;;;7.40;53.70;;;5.92;56.44;96314.56;5054871;28;20453;-80
2022/04/08 02:22:08;;;;;;;3.27;0.93;;;7.30;53.60;;;5.77;56.80;96304.25;5040301;28;20869;-80
2022/04/08 02:24:36;;;;;;;2.30;0.90;;;7.20;53.70;;;5.83;56.42;96302.50;5043234;28;20462;-79
2022/04/08 02:27:06;;;;;;;3.70;1.00;;;7.30;53.50;;;5.90;56.48;96307.78;5046368;28;20467;-76
2022/04/08 02:29:34;;;;;;;6.30;1.00;;;7.30;53.60;;;5.66;55.93;96287.06;5040054;28;20495;-79
2022/04/08 02:32:01;;;;;;;2.70;1.03;;;7.20;53.30;;;5.73;56.73;96316.44;5045314;28;20461;-77
2022/04/08 02:34:30;;;;;;;3.90;1.17;;;7.20;53.50;;;5.81;55.79;96320.69;5040407;28;20495;-80
2022/04/08 02:36:57;;;;;;;3.27;0.87;;;7.20;53.40;;;5.79;56.13;96328.13;5045072;28;20454;-79
2022/04/08 02:39:24;;;;;;;2.37;1.07;;;7.20;53.30;;;5.76;55.89;96328.59;5046621;28;20490;-80
2022/04/08 02:41:51;;;;;;;3.03;1.40;;;7.10;53.30;;;5.74;56.31;96333.38;5037781;28;22122;-82
2022/04/08 02:44:18;;;;;;;4.20;1.07;;;7.10;53.10;;;5.72;56.45;96343.50;5035021;28;20474;-79
2022/04/08 02:46:44;;;;;;;2.40;0.80;;;7.10;53.20;;;5.75;55.32;96345.72;5038511;28;20545;-76
2022/04/08 02:49:12;;;;;;;3.50;1.00;;;7.10;53.00;;;5.70;55.27;96343.72;5034438;28;20555;-77
2022/04/08 02:51:40;;;;;;;4.00;1.10;;;7.10;53.00;;;5.73;56.16;96353.16;5040232;28;20507;-80
2022/04/08 02:54:07;;;;;;;1.63;0.70;;;7.10;52.90;;;5.63;55.52;96348.34;5046524;28;20520;-79
2022/04/08 02:56:35;;;;;;;4.17;0.83;;;7.00;53.00;;;5.54;56.41;96345.16;5048488;28;20480;-79
2022/04/08 02:59:02;;;;;;;6.40;1.43;;;7.00;53.20;;;5.52;56.90;96355.25;5040444;28;20586;-76
2022/04/08 03:01:29;;;;;;;3.80;1.10;;;6.90;53.30;;;5.52;56.42;96360.59;5032552;28;21197;-81
2022/04/08 03:03:56;;;;;;;3.33;0.83;;;6.90;53.50;;;5.49;56.57;96361.06;5051959;28;20560;-81
2022/04/08 03:06:23;;;;;;;6.13;1.57;;;6.90;53.60;;;5.50;57.17;96363.53;5048447;28;20559;-77
2022/04/08 03:08:51;;;;;;;2.80;1.00;;;6.90;53.90;;;5.37;57.43;96369.84;5035549;28;20881;-81
2022/04/08 03:11:18;;;;;;;1.77;1.23;;;6.80;54.10;;;5.30;57.28;96355.72;5037005;28;20464;-79
2022/04/08 03:13:45;;;;;;;1.50;0.90;;;6.80;54.20;;;5.36;57.42;96362.03;5042542;28;20454;-78
2022/04/08 03:16:14;;;;;;;4.90;1.33;;;6.80;54.20;;;5.26;58.05;96349.16;5039758;28;20457;-76
2022/04/08 03:18:41;;;;;;;6.03;1.30;;;6.80;54.40;;;5.40;58.39;96387.31;5040639;28;20450;-77
2022/04/08 03:21:08;;;;;;;1.83;1.00;;;6.80;54.50;;;5.41;57.98;96391.63;5036670;28;21112;-78
2022/04/08 03:23:38;;;;;;;1.30;1.20;;;6.80;54.50;;;5.34;57.99;96386.34;5041259;28;20467;-78
2022/04/08 03:26:06;;;;;;;4.10;1.30;;;6.70;54.40;;;5.32;57.80;96403.69;5039527;28;20465;-79
2022/04/08 03:28:33;;;;;;;2.23;0.90;;;6.70;54.40;;;5.37;58.15;96396.63;5044784;28;20477;-78
2022/04/08 03:31:01;;;;;;;6.30;1.27;;;6.70;54.30;;;5.24;57.39;96392.22;5043084;28;20657;-77
2022/04/08 03:33:28;;;;;;;5.77;1.10;;;6.70;54.20;;;5.36;58.04;96399.53;5053015;28;20466;-79
2022/04/08 03:35:55;;;;;;;3.13;1.50;;;6.80;54.20;;;5.29;57.91;96394.25;5034314;28;20469;-79
2022/04/08 03:38:22;;;;;;;2.50;1.10;;;6.70;54.30;;;5.20;58.56;96395.56;5041232;28;20542;-80
2022/04/08 03:40:49;;;;;;;3.03;1.17;;;6.60;54.60;;;5.17;58.23;96401.34;5045407;28;21010;-79
2022/04/08 03:43:18;;;;;;;3.57;1.53;;;6.60;54.40;;;5.13;57.87;96389.47;5044412;28;20475;-81
2022/04/08 03:45:45;;;;;;;3.33;1.47;;;6.60;54.50;;;5.20;57.51;96408.94;5062806;28;20459;-82
2022/04/08 03:48:12;;;;;;;5.53;1.47;;;6.60;54.30;;;5.15;57.58;96409.59;5044124;28;20455;-78
2022/04/08 03:50:39;;;;;;;6.00;1.00;;;6.50;54.40;;;4.96;57.60;96393.50;5036572;28;20570;-79
2022/04/08 03:53:09;;;;;;;4.10;1.27;;;6.50;54.30;;;5.04;57.72;96408.47;5038600;28;20447;-77
2022/04/08 03:55:36;;;;;;;3.63;1.00;;;6.50;54.40;;;5.17;57.81;96425.47;5039868;28;20458;-77
2022/04/08 03:58:03;;;;;;;4.30;1.30;;;6.60;54.20;;;5.10;57.54;96412.97;5060317;28;20715;-77
2022/04/08 04:00:32;;;;;;;4.20;1.60;;;6.50;54.20;;;5.06;58.01;96410.94;5043288;28;20465;-79
2022/04/08 04:02:59;;;;;;;3.40;1.37;;;6.50;54.50;;;5.00;58.30;96417.16;5030728;28;20974;-79
2022/04/08 04:05:26;;;;;;;4.30;1.47;;;6.40;54.40;;;5.03;57.81;96411.38;5035068;28;20475;-77
2022/04/08 04:07:53;;;;;;;1.60;1.00;;;6.50;54.40;;;4.92;58.99;96432.47;5041630;28;20526;-78
2022/04/08 04:10:21;;;;;;;4.30;1.30;;;6.40;54.60;;;4.93;58.56;96436.78;5034044;28;20479;-79
2022/04/08 04:12:48;;;;;;;5.60;1.80;;;6.30;54.60;;;5.01;58.44;96441.03;5038240;28;20454;-82
2022/04/08 04:15:15;;;;;;;3.50;1.37;;;6.40;54.60;;;4.98;58.19;96446.84;5038178;28;20533;-80
2022/04/08 04:17:43;;;;;;;2.83;1.20;;;6.40;54.80;;;4.96;58.67;96444.38;5041298;28;20450;-81
2022/04/08 04:20:11;;;;;;;4.00;1.40;;;6.40;54.50;;;4.96;58.37;96456.94;5032170;28;20509;-79
2022/04/08 04:22:38;;;;;;;5.90;1.70;;;6.40;54.60;;;4.92;58.41;96451.19;5036287;28;20463;-81
2022/04/08 04:25:07;;;;;;;3.10;1.03;;;6.30;54.60;;;4.81;58.76;96458.06;5042263;28;20526;-77
2022/04/08 04:27:34;;;;;;;3.80;1.40;;;6.30;54.80;;;4.81;58.79;96462.59;5048164;28;20478;-78
2022/04/08 04:30:01;;;;;;;3.53;1.40;;;6.20;54.80;;;4.87;59.28;96466.25;5044958;28;20576;-81
2022/04/08 04:32:28;;;;;;;2.83;1.37;;;6.20;55.10;;;4.82;59.59;96470.41;5045326;28;20551;-79
2022/04/08 04:35:06;;;;;;;2.37;1.40;;;6.30;55.20;;;4.74;60.44;96483.25;5044922;28;20540;-80
2022/04/08 04:37:34;;;;;;;4.73;1.10;;;6.20;55.50;;;4.76;60.40;96481.97;5046903;28;20453;-80
2022/04/08 04:40:01;;;;;;;4.67;1.30;;;6.10;55.80;;;4.74;60.96;96497.41;5032277;28;20584;-79
2022/04/08 04:42:28;;;;;;;3.97;1.20;;;6.10;55.90;;;4.68;60.84;96491.06;5034686;28;20470;-78
2022/04/08 04:44:55;;;;;;;3.63;1.30;;;6.20;56.20;;;4.71;60.66;96495.19;5048641;28;20980;-79
2022/04/08 04:47:23;;;;;;;5.17;1.37;;;6.10;56.20;;;4.60;61.45;96482.47;5034066;28;20492;-79
2022/04/08 04:49:50;;;;;;;3.80;1.60;;;6.10;56.60;;;4.67;61.91;96500.13;5035282;28;20481;-79
2022/04/08 04:52:18;;;;;;;4.73;1.60;;;6.10;56.90;;;4.63;61.89;96484.75;5031931;28;20449;-79
2022/04/08 04:54:45;;;;;;;3.93;1.53;;;6.10;57.30;;;4.58;62.82;96482.72;5031648;28;21070;-78
2022/04/08 04:57:12;;;;;;;5.00;1.67;;;6.10;57.40;;;4.66;62.66;96509.19;5032676;28;20468;-79
2022/04/08 04:59:40;;;;;;;3.10;1.20;;;6.10;57.70;;;4.63;62.83;96500.81;5033884;28;20462;-81
2022/04/08 05:02:07;;;;;;;4.20;2.03;;;6.10;57.70;;;4.59;62.99;96495.06;5055527;28;20455;-79
2022/04/08 05:04:34;;;;;;;4.93;1.57;;;6.10;57.80;;;4.81;62.19;96516.94;5043095;28;20478;-80
2022/04/08 05:07:01;;;;;;;5.10;1.80;;;6.20;57.90;;;4.89;62.84;96520.38;5049156;28;20460;-81
2022/04/08 05:09:29;;;;;;;3.10;1.50;;;6.30;58.10;;;4.73;62.20;96471.69;5030413;28;20564;-76
2022/04/08 05:11:56;;;;;;;4.20;1.40;;;6.50;57.90;;;4.96;62.39;96502.44;5033351;28;20572;-80
2022/04/08 05:14:24;;;;;;;5.43;1.83;;;6.50;57.70;;;5.04;62.44;96526.25;5054627;28;20808;-76
2022/04/08 05:16:51;;;;;;;4.20;1.53;;;6.40;57.70;;;5.06;61.99;96529.53;5049734;28;20473;-77
2022/04/08 05:19:18;;;;;;;5.40;1.80;;;6.40;57.70;;;4.92;61.69;96490.50;5046671;28;20458;-79
2022/04/08 05:21:45;;;;;;;4.47;1.37;;;6.60;57.60;;;4.79;62.31;96462.00;5067883;28;20522;-78
2022/04/08 05:24:12;;;;;;;2.57;1.53;;;6.60;57.70;;;5.16;61.27;96522.88;5052029;28;20474;-76
2022/04/08 05:26:41;;;;;;;3.63;1.23;;;6.60;57.40;;;5.23;60.72;96534.34;5041651;28;21027;-79
2022/04/08 05:29:08;;;;;;;6.90;1.80;;;6.60;57.20;;;5.38;60.48;96526.84;5037936;28;20860;-79
2022/04/08 05:31:35;;;;;;;3.50;1.33;;;6.80;57.20;;;5.64;60.30;96527.63;5033683;28;20450;-79
2022/04/08 05:34:02;;;;;;;4.03;1.20;;;7.00;57.00;;;5.43;59.87;96511.97;5035202;28;20458;-78
2022/04/08 05:36:29;;;;;;;5.50;1.60;;;7.00;56.90;;;5.52;60.93;96543.63;5031647;28;20453;-80
2022/04/08 05:38:56;;;;;;;4.13;1.90;;;7.00;57.10;;;5.41;61.62;96535.47;5033967;28;20500;-81
2022/04/08 05:41:23;;;;;;;8.33;1.70;;;6.80;57.30;;;5.44;60.96;96535.03;5047420;28;20899;-77
2022/04/08 05:43:53;;;;;;;3.50;1.47;;;6.80;57.50;;;5.54;60.39;96535.38;5035126;28;21310;-78
2022/04/08 05:46:20;;;;;;;6.67;2.07;;;6.90;57.60;;;5.64;60.69;96557.09;5034396;28;20617;-78
2022/04/08 05:48:47;;;;;;;7.60;2.23;;;7.00;57.70;;;5.73;60.68;96548.81;5052042;28;20498;-75
2022/04/08 05:51:14;;;;;;;4.50;2.03;;;7.10;57.70;;;5.64;61.19;96541.03;5030956;28;20550;-77
2022/04/08 05:53:41;;;;;;;6.07;2.20;;;7.10;57.90;;;5.79;61.01;96551.41;5034056;28;20462;-75
2022/04/08 05:56:09;;;;;;;5.73;1.90;;;7.10;58.00;;;5.86;61.15;96548.69;5037591;28;20504;-75
2022/04/08 05:58:35;;;;;;;8.33;2.50;;;7.20;58.00;;;5.93;60.71;96549.41;5037126;28;20462;-76
2022/04/08 06:01:04;;;;;;;6.77;1.57;;;7.30;58.00;;;5.96;61.23;96553.53;5032296;28;20486;-84
2022/04/08 06:03:31;;;;;;;5.47;2.03;;;7.30;58.00;;;6.09;60.23;96555.28;5039192;28;20459;-79
2022/04/08 06:05:58;;;;;;;5.90;2.17;;;7.40;57.80;;;6.14;60.28;96558.13;5034400;28;20459;-78
2022/04/08 06:08:25;;;;;;;5.27;1.80;;;7.50;58.00;;;6.26;60.30;96570.78;5032973;28;20934;-77
2022/04/08 06:10:52;;;;;;;8.33;1.47;;;7.60;57.80;;;6.23;59.90;96564.00;5036761;28;20855;-75
2022/04/08 06:13:24;;;;;;;4.90;1.73;;;7.60;57.70;;;6.24;59.58;96574.50;5038091;28;20546;-74
2022/04/08 06:15:52;;;;;;;7.17;1.50;;;7.60;57.60;;;6.38;60.36;96574.34;5034227;28;20450;-71
2022/04/08 06:18:20;;;;;;;2.50;1.50;;;7.70;57.80;;;6.45;59.40;96585.00;5027982;28;20625;-73
2022/04/08 06:20:47;;;;;;;4.50;1.50;;;7.80;57.60;;;6.48;59.64;96568.47;5037487;28;20565;-74
2022/04/08 06:23:15;;;;;;;3.10;1.40;;;7.90;57.70;;;6.55;58.93;96573.75;5037031;28;20451;-71
2022/04/08 06:25:42;;;;;;;5.03;1.80;;;7.90;57.10;;;6.59;58.77;96577.63;5038004;28;20479;-71
2022/04/08 06:28:09;;;;;;;6.00;1.50;;;8.00;57.10;;;6.58;59.22;96586.72;5042270;28;20987;-73
2022/04/08 06:30:39;;;;;;;4.23;1.70;;;8.00;57.10;;;6.59;58.97;96577.63;5038035;28;20504;-71
2022/04/08 06:33:08;;;;;;;4.60;1.80;;;8.00;57.00;;;6.61;59.35;96570.97;5036673;28;21295;-72
2022/04/08 06:35:37;;;;;;;8.70;1.90;;;8.00;57.10;;;6.60;57.96;96510.31;5037309;28;20464;-72
2022/04/08 06:38:06;;;;;;;8.00;1.80;;;8.20;57.30;;;7.29;57.62;96553.97;5031885;28;20456;-73
2022/04/08 06:40:37;;;;;;;7.30;1.67;;;8.50;56.90;;;7.34;57.07;96562.94;5038081;28;22063;-72
2022/04/08 06:43:05;;;;;;;6.37;2.17;;;8.70;56.70;;;7.56;56.04;96532.84;5052139;28;20467;-71
2022/04/08 06:45:32;;;;;;;4.50;1.90;;;8.90;56.10;;;7.73;55.75;96553.66;5053474;28;21055;-73
2022/04/08 06:48:00;;;;;;;3.67;1.70;;;9.10;55.80;;;7.77;55.43;96558.34;5039196;28;20441;-79
2022/04/08 06:50:27;;;;;;;3.00;1.53;;;9.10;55.60;;;7.80;55.44;96559.75;5023339;28;20733;-70
2022/04/08 06:52:59;;;;;;;4.83;1.80;;;9.10;55.60;;;7.51;55.80;96556.94;5036590;28;20499;-71
2022/04/08 06:55:26;;;;;;;3.70;1.90;;;8.90;55.70;;;7.46;56.32;96540.66;5035816;28;20455;-73
2022/04/08 06:57:53;;;;;;;5.80;1.80;;;8.90;55.90;;;7.84;56.22;96560.09;5041047;28;20505;-74
2022/04/08 07:00:22;;;;;;;3.60;1.80;;;9.00;56.00;;;7.93;56.00;96559.50;5038461;28;20457;-72
2022/04/08 07:02:49;;;;;;;4.63;1.90;;;9.20;56.00;;;8.23;54.86;96563.94;5055572;28;20534;-77
2022/04/08 07:05:16;;;;;;;4.90;3.03;;;9.40;55.60;;;8.17;55.07;96556.81;5037194;28;20457;-76
2022/04/08 07:07:45;;;;;;;3.97;2.33;;;9.60;55.50;;;8.44;54.48;96569.78;5040503;28;20550;-76
2022/04/08 07:10:14;;;;;;;4.97;2.00;;;9.60;55.20;;;8.40;54.65;96565.91;5032835;28;21014;-73
2022/04/08 07:12:41;;;;;;;6.80;1.63;;;9.70;55.20;;;8.39;53.75;96545.41;5049088;28;20542;-72
2022/04/08 07:15:10;;;;;;;3.03;1.80;;;9.70;55.00;;;8.32;54.59;96571.66;5041679;28;20517;-71
2022/04/08 07:17:38;;;;;;;4.30;1.83;;;9.60;55.10;;;8.04;54.03;96560.59;5035572;28;20554;-75
2022/04/08 07:20:07;;;;;;;7.63;1.70;;;9.50;54.60;;;8.06;55.29;96565.72;5039572;28;20557;-73
2022/04/08 07:22:34;;;;;;;9.03;3.00;;;9.40;55.30;;;8.12;55.18;96556.72;5036637;28;20496;-73
2022/04/08 07:25:02;;;;;;;3.13;1.50;;;9.40;55.40;;;8.32;55.04;96558.19;5044143;28;20517;-77
2022/04/08 07:27:31;;;;;;;3.87;1.73;;;9.50;55.10;;;8.18;54.80;96555.75;5041591;28;21015;-75
2022/04/08 07:29:58;;;;;;;8.57;2.00;;;9.50;55.10;;;8.11;55.20;96552.38;5040267;28;20528;-72
2022/04/08 07:32:25;;;;;;;5.80;2.10;;;9.50;55.30;;;7.83;55.39;96539.63;5056341;28;20544;-75
2022/04/08 07:34:53;;;;;;;3.73;1.97;;;9.30;55.30;;;7.94;55.25;96550.38;5041926;28;20476;-75
2022/04/08 07:37:30;;;;;;;3.63;1.47;;;9.30;55.30;;;8.20;54.93;96537.50;5043952;28;20457;-73
2022/04/08 07:39:58;;;;;;;3.60;2.33;;;9.40;55.30;;;8.26;54.63;96541.13;5055460;28;20484;-74
2022/04/08 07:42:25;;;;;;;5.50;2.07;;;9.50;55.20;;;8.18;54.58;96528.03;5051181;28;20535;-73
2022/04/08 07:44:54;;;;;;;4.93;1.93;;;9.60;55.10;;;8.23;54.49;96526.25;5057607;28;20905;-75
2022/04/08 07:47:22;;;;;;;5.70;1.83;;;9.50;55.00;;;8.17;54.95;96519.16;5050973;28;20463;-74
2022/04/08 07:49:49;;;;;;;4.20;1.90;;;9.50;54.90;;;8.35;54.25;96520.03;5046492;28;20543;-74
2022/04/08 07:52:16;;;;;;;4.33;1.47;;;9.60;54.90;;;8.55;54.56;96524.22;5039472;28;20581;-72
2022/04/08 07:54:45;;;;;;;7.50;2.00;;;9.70;54.90;;;8.77;53.08;96519.84;5036508;28;20517;-74
2022/04/08 07:57:14;;;;;;;7.50;2.23;;;10.00;53.70;;;8.86;53.04;96527.50;5040846;28;20486;-72
2022/04/08 07:59:41;;;;;;;3.10;1.50;;;10.10;53.40;;;9.13;52.13;96518.84;5039834;28;20465;-70
2022/04/08 08:02:10;;;;;;;3.93;1.43;;;10.40;53.10;;;8.58;52.63;96510.31;5039912;28;20471;-70
2022/04/08 08:04:37;;;;;;;6.93;1.70;;;10.10;52.60;;;8.53;53.52;96512.88;5037133;28;20464;-69
2022/04/08 08:07:04;;;;;;;5.07;1.67;;;9.90;54.10;;;8.38;52.78;96459.56;5046699;28;21087;-72
2022/04/08 08:09:33;;;;;;;3.37;1.53;;;10.00;53.00;;;8.98;51.69;96509.41;5038482;28;20474;-71
2022/04/08 08:12:00;;;;;;;4.20;1.87;;;10.20;53.00;;;8.88;52.16;96498.47;5036135;28;20606;-72
2022/04/08 08:14:28;;;;;;;6.37;2.40;;;10.30;52.60;;;9.26;51.14;96504.25;5036829;28;20459;-70
2022/04/08 08:16:55;;;;;;;4.60;2.20;;;10.40;52.40;;;8.73;52.23;96502.53;5045111;28;20460;-72
2022/04/08 08:19:23;;;;;;;3.93;1.77;;;10.20;52.30;;;9.02;50.81;96505.19;5033592;28;20552;-73
2022/04/08 08:21:51;;;;;;;5.70;1.53;;;10.30;51.70;;;8.85;51.31;96493.56;5036011;28;20466;-72
2022/04/08 08:24:18;;;;;;;6.03;1.80;;;10.20;51.80;;;9.06;50.75;96494.75;5038351;28;21059;-71
2022/04/08 08:26:44;;;;;;;9.67;2.20;;;10.30;51.60;;;9.09;50.81;96501.53;5051497;28;20469;-72
2022/04/08 08:29:11;;;;;;;4.63;1.77;;;10.40;51.50;;;9.22;50.60;96495.81;5038429;28;20972;-74
2022/04/08 08:31:38;;;;;;;4.20;1.80;;;10.50;51.50;;;9.28;49.81;96497.53;5037528;28;20599;-72
2022/04/08 08:34:05;;;;;;;6.63;2.10;;;10.60;51.00;;;9.56;49.54;96497.72;5035472;28;20496;-78
2022/04/08 08:36:34;;;;;;;6.33;1.53;;;10.80;51.00;;;9.76;48.60;96492.63;5037823;28;20471;-71
2022/04/08 08:39:01;;;;;;;7.37;1.47;;;11.00;50.90;;;9.91;49.09;96494.69;5036383;28;20604;-74
2022/04/08 08:41:28;;;;;;;3.20;1.57;;;11.10;51.40;;;9.84;48.93;96493.25;5037074;28;20547;-70
2022/04/08 08:43:55;;;;;;;5.90;2.33;;;11.10;51.00;;;9.33;50.47;96489.56;5042542;28;21008;-72
2022/04/08 08:46:23;;;;;;;5.47;2.60;;;10.70;51.20;;;9.32;50.70;96495.19;5042639;28;20798;-72
2022/04/08 08:48:52;;;;;;;3.57;1.90;;;10.60;51.50;;;9.27;51.18;96468.16;5054776;28;20465;-71
2022/04/08 08:51:20;;;;;;;9.80;2.43;;;10.60;52.00;;;9.42;51.14;96479.19;5035818;28;20465;-71
2022/04/08 08:53:48;;;;;;;3.80;1.80;;;10.70;52.20;;;9.27;51.20;96490.50;5044199;28;20464;-70
2022/04/08 08:56:16;;;;;;;4.93;1.53;;;10.60;51.70;;;9.23;50.86;96486.69;5043981;28;20554;-72
2022/04/08 08:58:43;;;;;;;6.17;1.80;;;10.50;51.50;;;9.46;50.39;96482.19;5037218;28;21070;-74
2022/04/08 09:01:11;;;;;;;5.17;2.10;;;10.60;51.60;;;8.89;51.59;96481.25;5037946;28;20501;-75
2022/04/08 09:03:41;;;;;;;4.43;1.80;;;10.30;51.40;;;8.83;51.75;96479.53;5041265;28;20476;-73
2022/04/08 09:06:10;;;;;;;4.23;1.83;;;10.10;51.60;;;8.96;51.12;96489.19;5032785;28;20448;-73
2022/04/08 09:08:39;;;;;;;3.73;2.00;;;10.20;51.50;;;9.05;50.75;96485.84;5030883;28;20898;-74
2022/04/08 09:11:07;;;;;;;6.83;1.67;;;10.30;51.40;;;8.97;51.31;96483.53;5032299;28;20539;-73
2022/04/08 09:13:46;;;;;;;8.07;2.10;;;10.20;51.10;;;9.15;51.09;96482.50;5043230;28;20493;-73
2022/04/08 09:16:13;;;;;;;2.63;1.50;;;10.30;51.40;;;8.97;50.50;96464.69;5057147;28;20455;-74
2022/04/08 09:18:42;;;;;;;7.37;1.60;;;10.30;51.20;;;9.10;50.49;96473.53;5050659;28;20485;-75
2022/04/08 09:21:09;;;;;;;3.87;1.60;;;10.30;51.30;;;8.87;50.66;96440.25;5045227;28;20453;-73
2022/04/08 09:23:36;;;;;;;9.90;2.17;;;10.40;51.30;;;9.24;51.43;96457.84;5038745;28;20471;-70
2022/04/08 09:26:07;;;;;;;6.50;2.10;;;10.40;51.60;;;9.37;50.73;96462.91;5047087;28;20484;-71
2022/04/08 09:28:37;;;;;;;4.13;2.10;;;10.50;51.40;;;9.63;49.69;96452.50;5050864;28;20459;-71
2022/04/08 09:31:05;;;;;;;4.50;1.93;;;10.70;51.30;;;9.67;49.85;96439.34;5052338;28;20469;-72
2022/04/08 09:33:33;;;;;;;3.83;1.60;;;11.00;51.10;;;9.62;50.83;96448.19;5040108;28;21042;-72
2022/04/08 09:36:01;;;;;;;3.20;1.57;;;10.90;51.90;;;8.67;53.41;96456.91;5042519;28;20547;-73
2022/04/08 09:38:30;;;;;;;4.13;1.67;;;10.30;52.20;;;8.66;53.40;96456.06;5054791;28;20467;-73
2022/04/08 09:41:07;;;;;;;5.43;1.60;;;10.00;52.80;;;8.33;54.67;96457.56;5037155;28;20556;-73
2022/04/08 09:43:39;;;;;;;3.93;1.50;;;9.60;54.00;;;8.58;55.30;96456.47;5041578;28;20470;-71
2022/04/08 09:46:16;;;;;;;4.30;1.90;;;9.70;55.20;;;8.62;55.85;96449.53;5039906;28;20464;-71
2022/04/08 09:48:45;;;;;;;5.33;2.27;;;9.90;55.70;;;8.58;57.08;96461.84;5038014;28;20619;-72
2022/04/08 09:51:20;;;;;;;3.37;1.67;;;9.90;57.10;;;8.45;57.88;96441.38;5043407;28;20477;-74
2022/04/08 09:53:54;;;;;;;5.10;2.00;;;9.70;57.20;;;7.88;61.83;96434.88;5040565;28;20515;-74
2022/04/08 09:56:24;;;;;;;8.40;2.60;;;9.40;59.30;;;7.86;64.71;96445.88;5041895;28;20545;-73
2022/04/08 09:59:00;;;;;;;5.23;2.10;;;9.30;61.50;;;7.84;64.74;96448.00;5039695;28;20454;-71
2022/04/08 10:01:29;;;;;;;4.60;1.93;;;9.20;62.10;;;7.75;65.06;96438.66;5039054;28;20777;-74
2022/04/08 10:03:56;;;;;;;5.90;1.90;;;9.10;63.20;;;7.98;64.20;96436.97;5049666;28;20529;-73
2022/04/08 10:06:24;;;;;;;2.70;2.00;;;9.20;62.50;;;7.44;65.73;96421.84;5039977;28;20499;-71
2022/04/08 10:08:52;;;;;;;5.13;2.30;;;9.00;62.40;;;7.44;65.52;96421.84;5052268;28;20988;-70
2022/04/08 10:11:28;;;;;;;5.23;2.20;;;8.80;63.00;;;8.21;64.40;96420.75;5040465;28;20806;-73
2022/04/08 10:14:16;;;;;;;11.30;2.50;;;9.20;63.30;;;8.21;64.40;96423.44;5046188;28;20576;-69
2022/04/08 10:16:45;;;;;;;6.20;2.30;;;9.40;63.30;;;8.07;66.28;96412.16;5038728;28;20461;-72
2022/04/08 10:19:13;;;;;;;4.60;1.77;;;9.50;64.30;;;7.49;68.08;96397.75;5054292;28;20454;-72
2022/04/08 10:21:41;;;;;;;4.37;2.20;;;9.20;65.10;;;7.30;69.27;96411.34;5036839;28;20528;-71
2022/04/08 10:24:10;;;;;;;3.80;2.00;;;8.80;66.00;;;7.82;66.65;96415.16;5045182;28;20461;-75
2022/04/08 10:26:58;;;;;;;4.93;2.27;;;9.00;66.00;;;7.70;68.68;96411.66;5037891;28;21093;-73
2022/04/08 10:29:26;;;;;;;5.77;2.63;;;9.00;66.90;;;7.09;69.93;96338.34;5036822;28;20528;-71
2022/04/08 10:31:58;;;;;;;4.77;1.60;;;8.90;67.80;;;7.42;71.16;96402.47;5042214;28;20479;-71
2022/04/08 10:34:28;;;;;;;3.50;2.00;;;8.80;68.70;;;8.08;68.75;96386.06;5038175;28;21557;-71
2022/04/08 10:36:55;;;;;;;5.00;1.93;;;9.20;68.50;;;8.26;67.25;96389.63;5042462;28;20872;-71